createdAt,value
2023-01-09T00:00:46.592Z,12.60
2023-01-09T00:03:13.449Z,12.20
2023-01-09T00:05:40.225Z,10.00
2023-01-09T00:08:12.254Z,8.70
2023-01-09T00:10:39.128Z,8.53
2023-01-09T00:13:05.839Z,13.20
2023-01-09T00:15:32.690Z,10.80
2023-01-09T00:17:59.460Z,10.77
2023-01-09T00:20:26.260Z,9.53
2023-01-09T00:22:53.137Z,13.67
2023-01-09T00:25:19.960Z,11.37
2023-01-09T00:27:46.687Z,12.10
2023-01-09T00:30:13.621Z,8.80
2023-01-09T00:32:40.738Z,11.53
2023-01-09T00:35:11.882Z,9.53
2023-01-09T00:37:38.610Z,13.13
2023-01-09T00:40:05.681Z,10.43
2023-01-09T00:42:34.629Z,8.30
2023-01-09T00:45:07.715Z,10.97
2023-01-09T00:47:48.651Z,10.70
2023-01-09T00:50:22.011Z,10.63
2023-01-09T00:52:50.389Z,11.60
2023-01-09T00:55:17.749Z,13.30
2023-01-09T00:57:44.629Z,13.10
2023-01-09T01:00:12.025Z,8.63
2023-01-09T01:02:38.854Z,10.23
2023-01-09T01:05:25.820Z,9.33
2023-01-09T01:07:52.790Z,10.47
2023-01-09T01:10:23.314Z,13.40
2023-01-09T01:12:50.973Z,12.77
2023-01-09T01:15:19.321Z,14.50
2023-01-09T01:17:46.197Z,10.73
2023-01-09T01:20:16.538Z,10.93
2023-01-09T01:22:43.533Z,7.50
2023-01-09T01:25:11.949Z,12.13
2023-01-09T01:27:38.757Z,15.10
2023-01-09T01:30:07.596Z,15.30
2023-01-09T01:32:34.728Z,9.80
2023-01-09T01:35:01.519Z,12.60
2023-01-09T01:37:30.624Z,8.60
2023-01-09T01:39:57.440Z,12.13
2023-01-09T01:42:24.181Z,9.97
2023-01-09T01:45:05.969Z,8.70
2023-01-09T01:47:54.455Z,14.30
2023-01-09T01:50:43.059Z,10.73
2023-01-09T01:53:23.605Z,11.97
2023-01-09T01:55:50.291Z,15.17
2023-01-09T01:58:17.476Z,10.23
2023-01-09T02:00:46.577Z,12.63
2023-01-09T02:03:17.731Z,15.63
2023-01-09T02:05:45.134Z,8.17
2023-01-09T02:08:12.551Z,15.47
2023-01-09T02:10:40.712Z,11.20
2023-01-09T02:13:09.049Z,9.03
2023-01-09T02:16:06.938Z,11.80
2023-01-09T02:18:43.008Z,7.13
2023-01-09T02:21:53.276Z,10.97
2023-01-09T02:24:47.855Z,11.10
2023-01-09T02:27:39.113Z,7.60
2023-01-09T02:30:24.291Z,10.67
2023-01-09T02:33:29.744Z,7.27
2023-01-09T02:36:02.440Z,6.93
2023-01-09T02:38:53.500Z,8.67
2023-01-09T02:41:47.821Z,9.30
2023-01-09T02:44:27.358Z,6.83
2023-01-09T02:47:05.870Z,13.63
2023-01-09T02:49:38.427Z,8.50
2023-01-09T02:52:30.424Z,9.07
2023-01-09T02:55:12.037Z,8.37
2023-01-09T02:57:58.005Z,11.17
2023-01-09T03:00:45.710Z,8.77
2023-01-09T03:03:25.338Z,9.57
2023-01-09T03:06:12.942Z,9.10
2023-01-09T03:08:47.023Z,6.97
2023-01-09T03:11:13.848Z,8.30
2023-01-09T03:13:58.505Z,6.13
2023-01-09T03:16:31.311Z,10.63
2023-01-09T03:19:00.555Z,6.73
2023-01-09T03:21:28.470Z,8.20
2023-01-09T03:24:00.602Z,9.50
2023-01-09T03:26:31.532Z,6.00
2023-01-09T03:28:59.478Z,7.57
2023-01-09T03:31:26.311Z,9.47
2023-01-09T03:33:53.134Z,10.80
2023-01-09T03:36:21.371Z,6.50
2023-01-09T03:38:48.242Z,7.23
2023-01-09T03:41:15.284Z,10.87
2023-01-09T03:43:42.040Z,6.37
2023-01-09T03:46:08.917Z,12.77
2023-01-09T03:48:35.735Z,7.93
2023-01-09T03:51:02.493Z,6.40
2023-01-09T03:53:29.573Z,8.73
2023-01-09T03:55:58.118Z,10.23
2023-01-09T03:58:26.016Z,6.10
2023-01-09T04:00:58.559Z,7.57
2023-01-09T04:03:25.434Z,9.37
2023-01-09T04:05:52.211Z,9.40
2023-01-09T04:08:20.132Z,7.87
2023-01-09T04:10:48.663Z,6.37
2023-01-09T04:13:16.114Z,8.00
2023-01-09T04:15:43.175Z,7.47
2023-01-09T04:18:10.185Z,7.60
2023-01-09T04:20:37.135Z,6.50
2023-01-09T04:23:03.920Z,5.53
2023-01-09T04:25:30.704Z,6.77
2023-01-09T04:27:58.647Z,8.03
2023-01-09T04:30:25.983Z,6.57
2023-01-09T04:32:52.890Z,7.63
2023-01-09T04:35:20.081Z,4.17
2023-01-09T04:37:46.964Z,3.30
2023-01-09T04:40:14.251Z,5.20
2023-01-09T04:42:41.661Z,4.17
2023-01-09T04:45:10.784Z,7.33
2023-01-09T04:47:38.293Z,5.03
2023-01-09T04:50:05.738Z,3.93
2023-01-09T04:52:32.514Z,4.93
2023-01-09T04:54:59.260Z,5.03
2023-01-09T04:57:26.050Z,4.77
2023-01-09T04:59:54.189Z,4.90
2023-01-09T05:02:21.173Z,4.57
2023-01-09T05:04:50.016Z,3.57
2023-01-09T05:07:16.762Z,5.67
2023-01-09T05:09:44.679Z,6.03
2023-01-09T05:12:11.410Z,5.97
2023-01-09T05:14:38.243Z,3.13
2023-01-09T05:17:05.017Z,5.33
2023-01-09T05:19:31.893Z,5.63
2023-01-09T05:21:58.682Z,7.20
2023-01-09T05:24:25.479Z,3.70
2023-01-09T05:26:52.310Z,4.37
2023-01-09T05:29:19.151Z,4.07
2023-01-09T05:31:46.024Z,5.23
2023-01-09T05:34:12.987Z,5.27
2023-01-09T05:36:39.814Z,5.57
2023-01-09T05:39:07.225Z,3.30
2023-01-09T05:41:34.000Z,5.27
2023-01-09T05:44:00.786Z,5.53
2023-01-09T05:46:27.555Z,4.03
2023-01-09T05:48:54.303Z,4.30
2023-01-09T05:51:21.023Z,8.53
2023-01-09T05:53:48.093Z,9.83
2023-01-09T05:56:14.961Z,5.80
2023-01-09T05:58:41.765Z,5.33
2023-01-09T06:01:08.765Z,6.47
2023-01-09T06:03:38.141Z,7.30
2023-01-09T06:06:05.133Z,7.30
2023-01-09T06:08:31.908Z,3.57
2023-01-09T06:10:58.643Z,7.67
2023-01-09T06:13:25.489Z,6.50
2023-01-09T06:15:52.404Z,6.37
2023-01-09T06:18:19.409Z,4.10
2023-01-09T06:20:46.137Z,6.27
2023-01-09T06:23:13.800Z,5.73
2023-01-09T06:25:40.877Z,7.40
2023-01-09T06:28:07.939Z,8.37
2023-01-09T06:30:34.870Z,10.67
2023-01-09T06:33:01.648Z,6.33
2023-01-09T06:35:28.480Z,6.73
2023-01-09T06:37:55.258Z,4.67
2023-01-09T06:40:22.022Z,6.37
2023-01-09T06:42:49.942Z,5.27
2023-01-09T06:45:16.942Z,8.77
2023-01-09T06:47:44.009Z,7.23
2023-01-09T06:50:11.878Z,7.47
2023-01-09T06:52:39.463Z,5.63
2023-01-09T06:55:07.089Z,8.70
2023-01-09T06:57:34.048Z,5.60
2023-01-09T07:00:00.819Z,12.40
2023-01-09T07:02:27.617Z,8.50
2023-01-09T07:04:54.419Z,5.00
2023-01-09T07:07:22.673Z,7.97
2023-01-09T07:09:49.884Z,10.87
2023-01-09T07:12:16.768Z,7.93
2023-01-09T07:14:43.583Z,8.03
2023-01-09T07:17:13.556Z,4.43
2023-01-09T07:19:40.589Z,5.33
2023-01-09T07:22:07.663Z,6.87
2023-01-09T07:24:34.416Z,7.03
2023-01-09T07:27:02.027Z,7.73
2023-01-09T07:29:28.949Z,6.10
2023-01-09T07:31:55.685Z,8.40
2023-01-09T07:34:22.495Z,8.67
2023-01-09T07:36:50.697Z,8.77
2023-01-09T07:39:17.683Z,14.80
2023-01-09T07:41:44.982Z,7.67
2023-01-09T07:44:12.011Z,5.90
2023-01-09T07:46:39.034Z,10.40
2023-01-09T07:49:06.050Z,9.40
2023-01-09T07:51:32.796Z,10.33
2023-01-09T07:53:59.650Z,10.90
2023-01-09T07:56:26.373Z,9.53
2023-01-09T07:58:53.184Z,8.43
2023-01-09T08:01:20.301Z,7.70
2023-01-09T08:03:48.126Z,10.07
2023-01-09T08:06:14.991Z,8.63
2023-01-09T08:08:43.264Z,6.00
2023-01-09T08:11:10.409Z,8.23
2023-01-09T08:13:37.232Z,7.60
2023-01-09T08:16:04.273Z,10.67
2023-01-09T08:18:31.168Z,11.80
2023-01-09T08:20:58.002Z,9.43
2023-01-09T08:23:24.730Z,10.80
2023-01-09T08:25:52.685Z,7.40
2023-01-09T08:28:19.734Z,10.00
2023-01-09T08:30:47.668Z,8.00
2023-01-09T08:33:15.075Z,10.37
2023-01-09T08:35:44.115Z,10.40
2023-01-09T08:38:11.444Z,5.03
2023-01-09T08:40:38.700Z,6.97
2023-01-09T08:43:24.262Z,7.63
2023-01-09T08:46:10.399Z,9.73
2023-01-09T08:48:37.204Z,9.33
2023-01-09T08:51:04.087Z,8.67
2023-01-09T08:53:31.622Z,8.43
2023-01-09T08:55:59.305Z,12.00
2023-01-09T08:58:26.092Z,6.27
2023-01-09T09:00:52.886Z,10.13
2023-01-09T09:03:19.688Z,14.37
2023-01-09T09:05:46.988Z,4.27
2023-01-09T09:08:13.967Z,9.10
2023-01-09T09:10:40.729Z,5.23
2023-01-09T09:13:07.481Z,7.67
2023-01-09T09:15:34.862Z,12.80
2023-01-09T09:18:04.506Z,11.57
2023-01-09T09:20:34.033Z,7.47
2023-01-09T09:23:00.920Z,9.47
2023-01-09T09:25:28.494Z,7.87
2023-01-09T09:27:56.382Z,7.67
2023-01-09T09:30:23.940Z,5.37
2023-01-09T09:32:50.798Z,7.83
2023-01-09T09:35:18.101Z,7.63
2023-01-09T09:37:54.460Z,8.43
2023-01-09T09:40:38.799Z,6.63
2023-01-09T09:43:30.499Z,6.53
2023-01-09T09:46:22.763Z,8.13
2023-01-09T09:49:02.417Z,6.53
2023-01-09T09:52:17.325Z,6.30
2023-01-09T09:54:50.622Z,6.40
2023-01-09T09:57:27.917Z,5.77
2023-01-09T09:59:56.502Z,9.27
2023-01-09T10:03:04.219Z,5.00
2023-01-09T10:05:36.363Z,7.17
2023-01-09T10:08:16.305Z,6.43
2023-01-09T10:10:55.129Z,6.20
2023-01-09T10:13:43.514Z,6.77
2023-01-09T10:16:25.774Z,4.93
2023-01-09T10:19:05.102Z,5.10
2023-01-09T10:21:57.294Z,3.53
2023-01-09T10:24:38.508Z,4.90
2023-01-09T10:27:24.961Z,4.80
2023-01-09T10:30:25.695Z,4.60
2023-01-09T10:33:05.239Z,3.33
2023-01-09T10:35:47.649Z,4.87
2023-01-09T10:38:20.585Z,3.17
2023-01-09T10:40:54.122Z,5.03
2023-01-09T10:43:34.964Z,7.13
2023-01-09T10:46:07.630Z,3.23
2023-01-09T10:48:45.485Z,2.03
2023-01-09T10:51:24.829Z,2.80
2023-01-09T10:53:54.123Z,3.10
2023-01-09T10:56:27.197Z,5.20
2023-01-09T10:58:55.500Z,1.87
2023-01-09T11:01:37.655Z,3.23
2023-01-09T11:04:20.559Z,2.53
2023-01-09T11:06:51.648Z,2.27
2023-01-09T11:09:19.108Z,3.40
2023-01-09T11:11:45.934Z,4.43
2023-01-09T11:14:31.427Z,2.00
2023-01-09T11:17:03.938Z,2.63
2023-01-09T11:19:33.279Z,2.73
2023-01-09T11:22:06.227Z,3.07
2023-01-09T11:24:33.155Z,4.70
2023-01-09T11:27:23.601Z,2.93
2023-01-09T11:30:15.605Z,3.10
2023-01-09T11:32:44.737Z,6.27
2023-01-09T11:35:27.251Z,3.13
2023-01-09T11:38:18.374Z,3.43
2023-01-09T11:40:54.659Z,1.43
2023-01-09T11:43:25.643Z,2.43
2023-01-09T11:46:00.964Z,2.07
2023-01-09T11:48:34.572Z,5.10
2023-01-09T11:51:05.947Z,4.90
2023-01-09T11:53:48.763Z,2.40
2023-01-09T11:56:17.403Z,3.03
2023-01-09T11:58:44.808Z,5.83
2023-01-09T12:01:40.512Z,2.27
2023-01-09T12:04:25.114Z,3.33
2023-01-09T12:06:57.695Z,2.83
2023-01-09T12:09:49.388Z,4.63
2023-01-09T12:12:40.637Z,6.47
2023-01-09T12:15:09.891Z,3.77
2023-01-09T12:17:42.851Z,7.10
2023-01-09T12:20:33.559Z,6.23
2023-01-09T12:23:17.802Z,6.43
2023-01-09T12:26:16.299Z,5.17
2023-01-09T12:28:58.280Z,4.90
2023-01-09T12:31:39.171Z,7.53
2023-01-09T12:34:21.188Z,4.70
2023-01-09T12:37:13.410Z,4.57
2023-01-09T12:40:09.497Z,3.43
2023-01-09T12:42:45.129Z,6.40
2023-01-09T12:45:29.879Z,3.17
2023-01-09T12:48:09.277Z,5.47
2023-01-09T12:51:17.777Z,6.17
2023-01-09T12:53:51.216Z,4.00
2023-01-09T12:56:29.449Z,6.60
2023-01-09T12:59:10.295Z,4.23
2023-01-09T13:01:42.045Z,5.07
2023-01-09T13:04:14.700Z,10.53
2023-01-09T13:06:49.213Z,9.47
2023-01-09T13:09:29.377Z,8.07
2023-01-09T13:12:28.365Z,8.07
2023-01-09T13:15:15.016Z,6.73
2023-01-09T13:17:51.484Z,8.53
2023-01-09T13:20:36.386Z,5.70
2023-01-09T13:23:05.499Z,7.10
2023-01-09T13:25:38.237Z,7.30
2023-01-09T13:28:19.180Z,8.60
2023-01-09T13:31:17.052Z,6.50
2023-01-09T13:33:51.371Z,6.07
2023-01-09T13:36:39.288Z,7.17
2023-01-09T13:39:06.828Z,6.97
2023-01-09T13:42:04.707Z,8.27
2023-01-09T13:44:33.727Z,7.17
2023-01-09T13:47:03.368Z,6.43
2023-01-09T13:49:42.082Z,8.03
2023-01-09T13:52:32.111Z,7.97
2023-01-09T13:54:58.965Z,6.27
2023-01-09T13:57:35.112Z,7.17
2023-01-09T14:00:14.840Z,7.30
2023-01-09T14:02:42.356Z,9.57
2023-01-09T14:05:16.223Z,7.33
2023-01-09T14:07:45.604Z,6.40
2023-01-09T14:10:37.743Z,7.60
2023-01-09T14:13:18.668Z,4.37
2023-01-09T14:15:47.143Z,7.20
2023-01-09T14:18:24.844Z,7.83
2023-01-09T14:20:58.193Z,5.27
2023-01-09T14:23:51.713Z,8.70
2023-01-09T14:26:44.198Z,5.50
2023-01-09T14:29:36.175Z,5.90
2023-01-09T14:32:26.448Z,6.73
2023-01-09T14:35:12.844Z,7.87
2023-01-09T14:37:41.088Z,6.73
2023-01-09T14:40:16.328Z,9.10
2023-01-09T14:42:46.028Z,9.50
2023-01-09T14:45:20.943Z,8.20
2023-01-09T14:47:53.612Z,6.70
2023-01-09T14:50:36.856Z,6.50
2023-01-09T14:53:20.987Z,6.17
2023-01-09T14:55:53.813Z,7.67
2023-01-09T14:58:24.904Z,7.50
2023-01-09T15:01:10.039Z,6.37
2023-01-09T15:03:45.186Z,8.00
2023-01-09T15:06:23.882Z,10.63
2023-01-09T15:09:19.421Z,7.00
2023-01-09T15:11:46.834Z,7.20
2023-01-09T15:14:36.008Z,5.17
2023-01-09T15:17:04.096Z,6.93
2023-01-09T15:19:34.503Z,11.00
2023-01-09T15:22:06.693Z,7.00
2023-01-09T15:24:34.828Z,10.60
2023-01-09T15:27:23.378Z,7.50
2023-01-09T15:29:51.398Z,11.93
2023-01-09T15:32:27.992Z,13.17
2023-01-09T15:34:56.448Z,9.10
2023-01-09T15:37:34.082Z,8.03
2023-01-09T15:40:02.793Z,6.97
2023-01-09T15:42:52.141Z,11.73
2023-01-09T15:45:33.919Z,9.37
2023-01-09T15:48:23.580Z,10.47
2023-01-09T15:50:55.409Z,5.33
2023-01-09T15:53:31.026Z,7.77
2023-01-09T15:56:13.047Z,11.10
2023-01-09T15:58:48.114Z,7.73
2023-01-09T16:01:30.917Z,8.87
2023-01-09T16:04:10.021Z,7.57
2023-01-09T16:06:47.813Z,9.20
2023-01-09T16:09:23.717Z,7.07
2023-01-09T16:11:53.778Z,6.97
2023-01-09T16:14:24.227Z,8.80
2023-01-09T16:16:52.394Z,7.73
2023-01-09T16:19:29.882Z,11.70
2023-01-09T16:22:01.718Z,9.77
2023-01-09T16:24:41.214Z,7.37
2023-01-09T16:27:21.878Z,7.80
2023-01-09T16:29:50.124Z,7.30
2023-01-09T16:32:22.559Z,15.30
2023-01-09T16:34:54.781Z,10.07
2023-01-09T16:37:23.138Z,3.53
2023-01-09T16:40:05.422Z,7.90
2023-01-09T16:42:51.888Z,14.27
2023-01-09T16:45:18.747Z,11.60
2023-01-09T16:47:46.392Z,12.30
2023-01-09T16:50:14.241Z,8.77
2023-01-09T16:52:41.304Z,6.17
2023-01-09T16:55:09.615Z,8.30
2023-01-09T16:57:36.878Z,6.00
2023-01-09T17:00:04.568Z,6.63
2023-01-09T17:02:31.443Z,8.97
2023-01-09T17:04:59.598Z,7.40
2023-01-09T17:07:26.434Z,7.90
2023-01-09T17:09:53.467Z,9.57
2023-01-09T17:12:26.731Z,9.07
2023-01-09T17:14:53.675Z,8.10
2023-01-09T17:17:21.582Z,9.03
2023-01-09T17:19:49.230Z,10.43
2023-01-09T17:22:16.531Z,10.10
2023-01-09T17:25:01.805Z,9.10
2023-01-09T17:27:51.479Z,11.77
2023-01-09T17:30:19.423Z,5.67
2023-01-09T17:32:47.275Z,5.50
2023-01-09T17:35:15.750Z,7.97
2023-01-09T17:37:43.325Z,11.07
2023-01-09T17:40:23.252Z,10.40
2023-01-09T17:42:50.047Z,5.53
2023-01-09T17:45:16.961Z,9.23
2023-01-09T17:47:43.847Z,9.83
2023-01-09T17:50:19.697Z,7.67
2023-01-09T17:52:49.565Z,8.67
2023-01-09T17:55:16.630Z,6.50
2023-01-09T17:57:43.771Z,6.10
2023-01-09T18:00:27.764Z,7.63
2023-01-09T18:02:56.642Z,10.93
2023-01-09T18:05:24.469Z,9.07
2023-01-09T18:07:51.679Z,10.47
2023-01-09T18:10:20.664Z,9.70
2023-01-09T18:12:48.282Z,7.13
2023-01-09T18:15:15.436Z,10.43
2023-01-09T18:17:42.218Z,7.83
2023-01-09T18:20:10.603Z,10.67
2023-01-09T18:22:37.656Z,8.20
2023-01-09T18:25:04.998Z,17.43
2023-01-09T18:27:32.177Z,7.07
2023-01-09T18:30:01.365Z,9.37
2023-01-09T18:32:28.918Z,11.33
2023-01-09T18:34:55.645Z,10.00
2023-01-09T18:37:22.619Z,6.90
2023-01-09T18:39:49.373Z,9.10
2023-01-09T18:42:16.159Z,12.87
2023-01-09T18:44:42.941Z,11.33
2023-01-09T18:47:09.765Z,8.43
2023-01-09T18:49:36.542Z,8.93
2023-01-09T18:52:03.373Z,12.20
2023-01-09T18:54:30.149Z,9.87
2023-01-09T18:56:57.141Z,7.70
2023-01-09T18:59:23.974Z,12.03
2023-01-09T19:01:50.838Z,7.63
2023-01-09T19:04:17.742Z,9.90
2023-01-09T19:06:44.508Z,9.53
2023-01-09T19:09:11.487Z,14.20
2023-01-09T19:11:38.291Z,8.83
2023-01-09T19:14:05.070Z,9.57
2023-01-09T19:16:31.907Z,11.07
2023-01-09T19:18:59.081Z,9.47
2023-01-09T19:21:26.986Z,6.70
2023-01-09T19:23:54.838Z,6.87
2023-01-09T19:26:28.738Z,6.50
2023-01-09T19:28:57.527Z,11.87
2023-01-09T19:31:26.680Z,9.13
2023-01-09T19:33:53.844Z,7.30
2023-01-09T19:36:22.033Z,9.53
2023-01-09T19:38:49.170Z,6.70
2023-01-09T19:41:21.033Z,10.20
2023-01-09T19:43:48.325Z,12.50
2023-01-09T19:46:18.432Z,13.53
2023-01-09T19:48:45.663Z,11.67
2023-01-09T19:51:14.175Z,14.57
2023-01-09T19:53:41.061Z,15.60
2023-01-09T19:56:07.926Z,10.23
2023-01-09T19:58:34.868Z,12.43
2023-01-09T20:01:13.524Z,8.93
2023-01-09T20:03:41.988Z,6.77
2023-01-09T20:06:14.310Z,9.40
2023-01-09T20:08:48.347Z,11.37
2023-01-09T20:11:16.508Z,8.67
2023-01-09T20:13:43.906Z,9.63
2023-01-09T20:16:16.062Z,8.60
2023-01-09T20:18:43.566Z,13.77
2023-01-09T20:21:10.452Z,9.80
2023-01-09T20:23:37.605Z,11.47
2023-01-09T20:26:05.184Z,12.47
2023-01-09T20:28:31.910Z,12.87
2023-01-09T20:30:58.779Z,11.40
2023-01-09T20:33:26.066Z,11.07
2023-01-09T20:35:52.905Z,8.13
2023-01-09T20:38:19.625Z,12.60
2023-01-09T20:40:46.408Z,10.63
2023-01-09T20:43:14.329Z,9.27
2023-01-09T20:45:41.190Z,9.77
2023-01-09T20:48:11.020Z,9.53
2023-01-09T20:50:38.483Z,11.20
2023-01-09T20:53:07.848Z,12.27
2023-01-09T20:55:35.380Z,9.53
2023-01-09T20:58:02.242Z,12.53
2023-01-09T21:00:32.032Z,12.43
2023-01-09T21:02:59.627Z,9.43
2023-01-09T21:05:26.789Z,11.27
2023-01-09T21:07:53.591Z,12.27
2023-01-09T21:10:20.524Z,14.03
2023-01-09T21:12:47.421Z,10.00
2023-01-09T21:15:16.850Z,11.80
2023-01-09T21:17:44.002Z,14.13
2023-01-09T21:20:13.488Z,13.93
2023-01-09T21:22:40.345Z,13.27
2023-01-09T21:25:07.779Z,11.50
2023-01-09T21:27:39.797Z,12.93
2023-01-09T21:30:08.298Z,11.40
2023-01-09T21:32:35.149Z,12.17
2023-01-09T21:35:05.899Z,14.30
2023-01-09T21:37:35.942Z,14.53
2023-01-09T21:40:09.579Z,14.37
2023-01-09T21:42:55.203Z,12.03
2023-01-09T21:45:40.823Z,9.43
2023-01-09T21:48:08.196Z,11.13
2023-01-09T21:50:35.736Z,13.17
2023-01-09T21:53:03.521Z,10.63
2023-01-09T21:55:33.241Z,7.73
2023-01-09T21:58:04.205Z,10.20
2023-01-09T22:00:31.284Z,11.53
2023-01-09T22:02:59.054Z,12.43
2023-01-09T22:05:27.458Z,17.97
2023-01-09T22:07:56.242Z,12.90
2023-01-09T22:10:23.053Z,12.50
2023-01-09T22:13:10.257Z,10.90
2023-01-09T22:15:38.355Z,16.37
2023-01-09T22:18:06.006Z,12.90
2023-01-09T22:20:32.880Z,13.13
2023-01-09T22:22:59.770Z,14.13
2023-01-09T22:25:26.665Z,15.50
2023-01-09T22:27:53.496Z,18.57
2023-01-09T22:30:20.404Z,15.27
2023-01-09T22:32:47.270Z,12.37
2023-01-09T22:35:14.246Z,10.60
2023-01-09T22:37:41.308Z,18.77
2023-01-09T22:40:14.437Z,12.47
2023-01-09T22:42:41.294Z,12.80
2023-01-09T22:45:08.554Z,15.33
2023-01-09T22:47:35.318Z,11.03
2023-01-09T22:50:02.021Z,17.67
2023-01-09T22:52:29.091Z,13.70
2023-01-09T22:54:56.037Z,15.87
2023-01-09T22:57:22.884Z,15.97
2023-01-09T22:59:49.645Z,16.57
2023-01-09T23:02:16.493Z,17.47
2023-01-09T23:04:43.323Z,14.03
2023-01-09T23:07:10.090Z,13.03
2023-01-09T23:09:36.903Z,12.97
2023-01-09T23:12:03.835Z,15.73
2023-01-09T23:14:33.217Z,13.07
2023-01-09T23:17:00.048Z,15.03
2023-01-09T23:19:27.069Z,22.47
2023-01-09T23:21:53.927Z,14.53
2023-01-09T23:24:20.727Z,10.80
2023-01-09T23:26:47.739Z,19.07
2023-01-09T23:29:14.656Z,14.63
2023-01-09T23:31:41.813Z,16.90
2023-01-09T23:34:08.728Z,14.07
2023-01-09T23:36:36.065Z,17.17
2023-01-09T23:39:04.266Z,17.27
2023-01-09T23:41:49.848Z,13.37
2023-01-09T23:44:16.699Z,16.60
2023-01-09T23:46:43.488Z,22.33
2023-01-09T23:49:10.469Z,13.90
2023-01-09T23:51:37.348Z,18.87
2023-01-09T23:54:04.293Z,14.80
2023-01-09T23:56:33.792Z,19.07
2023-01-09T23:59:01.971Z,18.27
